Flight Briefing for CPX423

Departure Arrival
Philip S.W. Goldson International Airport (MZBZ)
Click to view FAA NOTAMS
Miami International Airport (KMIA)
Click to view FAA NOTAMS
Departure Time Arrival Time
N/A N/A
Aircraft Distance
B757-200SF 704nm
Departure METAR Arrival METAR
MZBZ 192300Z 10010KT 9999 FEW023 29/23 A2988 Q1012 NOSIG RMK HZY KMIA 192253Z 10011KT 10SM SCT027 26/21 A3013 RMK AO2 SLP202 T02560206
Suggested Route
FRANT UG765 MAXIM EADEN CURSO5


View recent IFR Routes data
Notes



Charts and Procedures

Charts for MZBZ
No chart available
Charts for KMIA
No chart available

Ventusky Weather




{"cat":null,"equip":null,"transponder":null,"pbn":"PBN\/","maxpax":null,"oew":"0.0","mzfw":"0.0","mtow":"0.0","mlw":"0.0","maxfuel":"0.0"} DEVELOPMENTAL TEST USE ONLY